createdAt,value
2023-03-03T00:01:59.536Z,99.90
2023-03-03T00:04:27.154Z,99.90
2023-03-03T00:06:54.743Z,99.90
2023-03-03T00:09:22.707Z,99.70
2023-03-03T00:11:55.846Z,99.90
2023-03-03T00:14:29.487Z,99.90
2023-03-03T00:16:57.944Z,99.90
2023-03-03T00:19:25.713Z,99.90
2023-03-03T00:21:57.518Z,99.90
2023-03-03T00:24:38.134Z,99.90
2023-03-03T00:27:28.079Z,99.90
2023-03-03T00:30:01.060Z,99.90
2023-03-03T00:32:44.150Z,99.90
2023-03-03T00:35:28.170Z,99.90
2023-03-03T00:38:12.605Z,99.90
2023-03-03T00:40:41.239Z,99.90
2023-03-03T00:43:29.373Z,99.90
2023-03-03T00:45:58.072Z,99.90
2023-03-03T00:48:30.108Z,99.90
2023-03-03T00:50:59.732Z,99.90
2023-03-03T00:53:29.914Z,99.90
2023-03-03T00:55:58.490Z,99.90
2023-03-03T00:58:27.632Z,99.90
2023-03-03T01:00:56.841Z,99.90
2023-03-03T01:03:30.910Z,99.90
2023-03-03T01:05:58.724Z,99.90
2023-03-03T01:08:26.729Z,99.90
2023-03-03T01:11:00.149Z,99.90
2023-03-03T01:13:31.550Z,99.90
2023-03-03T01:16:01.353Z,99.90
2023-03-03T01:18:29.813Z,99.90
2023-03-03T01:20:57.499Z,99.90
2023-03-03T01:23:25.200Z,99.90
2023-03-03T01:25:52.813Z,99.90
2023-03-03T01:28:20.605Z,99.90
2023-03-03T01:30:48.260Z,99.90
2023-03-03T01:33:15.934Z,99.90
2023-03-03T01:35:47.682Z,99.90
2023-03-03T01:38:16.426Z,99.90
2023-03-03T01:40:51.875Z,99.90
2023-03-03T01:43:19.670Z,99.90
2023-03-03T01:45:50.388Z,99.90
2023-03-03T01:48:31.461Z,99.90
2023-03-03T01:51:48.977Z,99.90
2023-03-03T01:54:35.651Z,99.90
2023-03-03T01:57:07.761Z,99.90
2023-03-03T01:59:41.495Z,99.90
2023-03-03T02:02:09.497Z,99.90
2023-03-03T02:04:37.634Z,99.90
2023-03-03T02:07:11.730Z,99.70
2023-03-03T02:09:54.312Z,99.90
2023-03-03T02:12:31.419Z,99.90
2023-03-03T02:14:59.056Z,99.90
2023-03-03T02:17:26.764Z,99.90
2023-03-03T02:20:07.404Z,99.90
2023-03-03T02:22:47.841Z,99.90
2023-03-03T02:25:29.358Z,99.90
2023-03-03T02:27:57.563Z,99.90
2023-03-03T02:30:25.534Z,99.90
2023-03-03T02:32:53.379Z,99.90
2023-03-03T02:35:29.132Z,99.90
2023-03-03T02:38:03.892Z,99.90
2023-03-03T02:40:38.016Z,99.90
2023-03-03T02:43:07.151Z,99.90
2023-03-03T02:45:34.866Z,99.90
2023-03-03T02:48:02.739Z,99.90
2023-03-03T02:50:30.391Z,99.90
2023-03-03T02:52:59.020Z,99.90
2023-03-03T02:55:27.127Z,99.90
2023-03-03T02:57:54.716Z,99.90
2023-03-03T03:00:22.719Z,99.90
2023-03-03T03:02:50.877Z,99.90
2023-03-03T03:05:18.582Z,99.90
2023-03-03T03:07:46.230Z,99.90
2023-03-03T03:10:14.053Z,99.90
2023-03-03T03:12:43.460Z,99.90
2023-03-03T03:15:12.508Z,99.90
2023-03-03T03:17:40.296Z,99.90
2023-03-03T03:20:08.477Z,99.90
2023-03-03T03:22:36.146Z,99.90
2023-03-03T03:25:04.616Z,99.90
2023-03-03T03:27:32.844Z,99.90
2023-03-03T03:30:00.807Z,99.90
2023-03-03T03:32:30.006Z,99.90
2023-03-03T03:34:57.969Z,99.90
2023-03-03T03:37:26.181Z,99.90
2023-03-03T03:39:54.341Z,99.90
2023-03-03T03:42:21.973Z,99.90
2023-03-03T03:44:51.166Z,99.90
2023-03-03T03:47:19.426Z,99.90
2023-03-03T03:49:48.047Z,99.90
2023-03-03T03:52:15.759Z,99.90
2023-03-03T03:54:43.777Z,99.90
2023-03-03T03:57:11.738Z,99.90
2023-03-03T03:59:39.698Z,99.90
2023-03-03T04:02:07.776Z,99.90
2023-03-03T04:04:35.676Z,99.90
2023-03-03T04:07:03.413Z,99.90
2023-03-03T04:09:31.009Z,99.90
2023-03-03T04:11:58.726Z,99.90
2023-03-03T04:14:28.125Z,99.90
2023-03-03T04:16:56.249Z,99.90
2023-03-03T04:19:24.356Z,99.90
2023-03-03T04:21:53.018Z,99.90
2023-03-03T04:24:20.643Z,99.90
2023-03-03T04:26:51.371Z,99.90
2023-03-03T04:29:19.359Z,99.90
2023-03-03T04:31:47.065Z,99.90
2023-03-03T04:34:15.623Z,99.90
2023-03-03T04:36:44.960Z,99.90
2023-03-03T04:39:13.076Z,99.90
2023-03-03T04:41:40.953Z,99.90
2023-03-03T04:44:08.658Z,99.90
2023-03-03T04:46:36.512Z,99.90
2023-03-03T04:49:08.568Z,99.90
2023-03-03T04:51:37.751Z,99.90
2023-03-03T04:54:05.837Z,99.90
2023-03-03T04:56:33.519Z,99.90
2023-03-03T04:59:01.430Z,99.90
2023-03-03T05:01:29.238Z,99.90
2023-03-03T05:03:57.125Z,99.90
2023-03-03T05:06:24.954Z,99.90
2023-03-03T05:08:52.595Z,99.90
2023-03-03T05:11:20.168Z,99.90
2023-03-03T05:13:47.729Z,99.90
2023-03-03T05:16:15.571Z,99.90
2023-03-03T05:18:43.141Z,99.90
2023-03-03T05:21:10.994Z,99.90
2023-03-03T05:23:38.729Z,99.90
2023-03-03T05:26:06.496Z,99.90
2023-03-03T05:28:34.306Z,99.90
2023-03-03T05:31:01.946Z,99.90
2023-03-03T05:33:29.642Z,99.90
2023-03-03T05:35:57.986Z,99.90
2023-03-03T05:38:25.936Z,99.90
2023-03-03T05:40:55.095Z,99.90
2023-03-03T05:43:22.852Z,99.90
2023-03-03T05:45:56.190Z,99.90
2023-03-03T05:48:23.799Z,99.90
2023-03-03T05:50:51.355Z,99.90
2023-03-03T05:53:19.906Z,99.90
2023-03-03T05:55:47.846Z,99.90
2023-03-03T05:58:15.706Z,99.90
2023-03-03T06:00:43.461Z,99.90
2023-03-03T06:03:11.089Z,99.90
2023-03-03T06:05:39.113Z,99.90
2023-03-03T06:08:07.269Z,99.90
2023-03-03T06:10:35.363Z,99.90
2023-03-03T06:13:06.457Z,99.90
2023-03-03T06:15:34.174Z,99.90
2023-03-03T06:18:02.114Z,99.90
2023-03-03T06:20:30.168Z,99.90
2023-03-03T06:22:58.210Z,99.90
2023-03-03T06:25:25.760Z,99.90
2023-03-03T06:27:54.292Z,99.90
2023-03-03T06:30:21.992Z,99.90
2023-03-03T06:32:49.646Z,99.90
2023-03-03T06:35:18.543Z,99.90
2023-03-03T06:37:46.269Z,99.90
2023-03-03T06:40:14.310Z,99.90
2023-03-03T06:42:41.985Z,99.90
2023-03-03T06:45:10.185Z,99.90
2023-03-03T06:47:37.772Z,99.90
2023-03-03T06:50:05.888Z,99.90
2023-03-03T06:52:33.644Z,99.90
2023-03-03T06:55:10.073Z,99.90
2023-03-03T06:57:37.980Z,99.90
2023-03-03T07:00:38.297Z,99.90
2023-03-03T07:03:12.719Z,99.90
2023-03-03T07:05:40.502Z,99.90
2023-03-03T07:08:29.102Z,99.90
2023-03-03T07:11:01.338Z,99.90
2023-03-03T07:13:30.099Z,99.90
2023-03-03T07:16:02.196Z,99.90
2023-03-03T07:18:52.929Z,99.90
2023-03-03T07:21:23.737Z,99.90
2023-03-03T07:23:54.396Z,99.90
2023-03-03T07:26:33.515Z,99.90
2023-03-03T07:29:22.582Z,99.90
2023-03-03T07:31:50.956Z,99.90
2023-03-03T07:34:24.161Z,99.90
2023-03-03T07:36:59.717Z,99.90
2023-03-03T07:39:34.118Z,99.90
2023-03-03T07:42:22.564Z,99.90
2023-03-03T07:45:00.940Z,99.90
2023-03-03T07:47:31.894Z,99.90
2023-03-03T07:50:22.835Z,99.90
2023-03-03T07:52:57.184Z,99.90
2023-03-03T07:55:33.892Z,99.90
2023-03-03T07:58:14.860Z,99.90
2023-03-03T08:00:45.870Z,99.90
2023-03-03T08:03:19.459Z,99.90
2023-03-03T08:05:49.677Z,99.90
2023-03-03T08:08:39.057Z,99.90
2023-03-03T08:11:09.769Z,99.90
2023-03-03T08:13:39.433Z,99.90
2023-03-03T08:16:10.332Z,99.90
2023-03-03T08:18:40.517Z,99.90
2023-03-03T08:21:15.424Z,99.90
2023-03-03T08:23:44.179Z,99.90
2023-03-03T08:26:14.145Z,98.70
2023-03-03T08:28:41.800Z,98.20
2023-03-03T08:31:22.355Z,97.90
2023-03-03T08:33:55.767Z,97.70
2023-03-03T08:36:23.358Z,97.60
2023-03-03T08:38:51.052Z,96.20
2023-03-03T08:41:18.691Z,96.50
2023-03-03T08:43:46.322Z,96.80
2023-03-03T08:46:14.168Z,97.20
2023-03-03T08:48:41.837Z,96.90
2023-03-03T08:51:09.518Z,97.60
2023-03-03T08:53:38.807Z,96.30
2023-03-03T08:56:07.125Z,97.00
2023-03-03T08:58:36.290Z,97.40
2023-03-03T09:01:05.212Z,96.10
2023-03-03T09:03:33.072Z,95.20
2023-03-03T09:06:00.768Z,95.40
2023-03-03T09:08:28.490Z,95.90
2023-03-03T09:10:56.463Z,95.60
2023-03-03T09:13:24.409Z,94.70
2023-03-03T09:15:52.363Z,94.70
2023-03-03T09:18:36.097Z,95.10
2023-03-03T09:21:24.932Z,94.50
2023-03-03T09:24:02.166Z,94.60
2023-03-03T09:26:37.044Z,93.50
2023-03-03T09:29:24.851Z,94.20
2023-03-03T09:31:59.244Z,93.90
2023-03-03T09:34:43.161Z,92.70
2023-03-03T09:37:23.527Z,92.70
2023-03-03T09:39:53.691Z,92.90
2023-03-03T09:42:36.864Z,93.60
2023-03-03T09:45:27.314Z,92.90
2023-03-03T09:48:19.808Z,92.40
2023-03-03T09:50:56.491Z,92.70
2023-03-03T09:53:45.571Z,92.10
2023-03-03T09:56:28.526Z,91.80
2023-03-03T09:59:09.108Z,91.30
2023-03-03T10:01:36.586Z,90.20
2023-03-03T10:04:20.213Z,88.90
2023-03-03T10:08:03.380Z,90.30
2023-03-03T10:10:49.105Z,90.40
2023-03-03T10:14:04.256Z,88.10
2023-03-03T10:16:55.201Z,88.40
2023-03-03T10:19:39.132Z,87.70
2023-03-03T10:22:33.900Z,87.40
2023-03-03T10:25:38.428Z,86.50
2023-03-03T10:28:41.798Z,86.70
2023-03-03T10:31:13.520Z,84.40
2023-03-03T10:34:08.191Z,85.10
2023-03-03T10:37:00.229Z,84.50
2023-03-03T10:39:37.316Z,82.30
2023-03-03T10:42:49.762Z,82.80
2023-03-03T10:45:46.752Z,82.60
2023-03-03T10:48:28.495Z,80.10
2023-03-03T10:51:08.241Z,80.20
2023-03-03T10:53:56.078Z,80.20
2023-03-03T10:56:52.767Z,81.70
2023-03-03T10:59:34.608Z,78.40
2023-03-03T11:02:26.509Z,78.80
2023-03-03T11:05:12.004Z,76.20
2023-03-03T11:07:44.984Z,74.10
2023-03-03T11:10:15.393Z,70.50
2023-03-03T11:13:27.443Z,70.80
2023-03-03T11:16:16.349Z,72.60
2023-03-03T11:18:50.570Z,70.00
2023-03-03T11:21:39.514Z,69.10
2023-03-03T11:24:35.106Z,71.40
2023-03-03T11:27:38.294Z,68.00
2023-03-03T11:30:45.858Z,69.10
2023-03-03T11:33:22.386Z,68.70
2023-03-03T11:36:08.236Z,66.90
2023-03-03T11:39:14.382Z,67.80
2023-03-03T11:41:49.472Z,67.30
2023-03-03T11:44:34.240Z,66.90
2023-03-03T11:47:38.594Z,64.70
2023-03-03T11:50:26.290Z,66.40
2023-03-03T11:53:09.314Z,66.10
2023-03-03T11:55:39.441Z,66.80
2023-03-03T11:58:29.005Z,66.30
2023-03-03T12:01:15.022Z,66.80
2023-03-03T12:03:58.178Z,66.30
2023-03-03T12:06:52.130Z,66.30
2023-03-03T12:09:32.185Z,66.40
2023-03-03T12:12:02.573Z,65.70
2023-03-03T12:14:42.125Z,66.10
2023-03-03T12:17:22.173Z,66.00
2023-03-03T12:19:49.885Z,65.80
2023-03-03T12:22:35.191Z,66.50
2023-03-03T12:25:21.115Z,66.30
2023-03-03T12:27:55.102Z,66.90
2023-03-03T12:30:41.206Z,66.60
2023-03-03T12:33:41.533Z,67.70
2023-03-03T12:36:34.366Z,67.40
2023-03-03T12:39:35.324Z,66.80
2023-03-03T12:42:32.386Z,68.50
2023-03-03T12:45:25.533Z,69.90
2023-03-03T12:48:41.896Z,68.40
2023-03-03T12:51:23.233Z,69.20
2023-03-03T12:54:15.182Z,68.70
2023-03-03T12:56:53.833Z,68.00
2023-03-03T12:59:31.314Z,67.50
2023-03-03T13:02:36.936Z,68.70
2023-03-03T13:05:27.938Z,67.80
2023-03-03T13:08:39.494Z,68.90
2023-03-03T13:11:31.365Z,68.40
2023-03-03T13:14:04.860Z,67.40
2023-03-03T13:16:41.727Z,67.60
2023-03-03T13:19:15.965Z,67.50
2023-03-03T13:21:54.070Z,67.60
2023-03-03T13:24:35.579Z,67.10
2023-03-03T13:27:12.565Z,68.30
2023-03-03T13:29:52.488Z,67.10
2023-03-03T13:32:52.170Z,68.10
2023-03-03T13:35:39.707Z,66.60
2023-03-03T13:38:14.035Z,66.70
2023-03-03T13:40:50.800Z,67.70
2023-03-03T13:43:24.549Z,66.90
2023-03-03T13:46:14.798Z,66.60
2023-03-03T13:49:00.122Z,66.40
2023-03-03T13:51:59.110Z,65.20
2023-03-03T13:54:51.466Z,65.60
2023-03-03T13:57:19.239Z,66.70
2023-03-03T14:00:11.389Z,65.30
2023-03-03T14:02:50.779Z,65.90
2023-03-03T14:05:43.055Z,64.10
2023-03-03T14:08:28.788Z,64.10
2023-03-03T14:11:28.291Z,65.00
2023-03-03T14:14:23.203Z,63.70
2023-03-03T14:16:54.005Z,65.10
2023-03-03T14:19:26.466Z,64.80
2023-03-03T14:22:06.324Z,63.80
2023-03-03T14:25:06.554Z,65.40
2023-03-03T14:28:02.916Z,65.00
2023-03-03T14:30:36.565Z,65.30
2023-03-03T14:33:20.788Z,65.00
2023-03-03T14:35:57.611Z,65.80
2023-03-03T14:38:40.588Z,65.00
2023-03-03T14:41:11.327Z,65.80
2023-03-03T14:43:57.947Z,65.00
2023-03-03T14:46:31.961Z,65.70
2023-03-03T14:49:03.853Z,65.00
2023-03-03T14:51:50.028Z,65.00
2023-03-03T14:54:38.644Z,65.80
2023-03-03T14:57:17.592Z,64.30
2023-03-03T15:00:06.972Z,65.40
2023-03-03T15:02:40.584Z,64.70
2023-03-03T15:05:22.679Z,64.10
2023-03-03T15:08:10.682Z,64.70
2023-03-03T15:10:44.410Z,63.60
2023-03-03T15:13:21.631Z,64.70
2023-03-03T15:16:21.060Z,65.20
2023-03-03T15:18:55.397Z,64.80
2023-03-03T15:21:27.047Z,65.40
2023-03-03T15:24:10.874Z,65.40
2023-03-03T15:26:59.844Z,64.80
2023-03-03T15:29:39.075Z,65.00
2023-03-03T15:32:19.957Z,64.30
2023-03-03T15:34:51.870Z,64.10
2023-03-03T15:37:50.197Z,64.90
2023-03-03T15:40:45.673Z,65.20
2023-03-03T15:43:37.779Z,64.90
2023-03-03T15:46:26.607Z,65.10
2023-03-03T15:49:21.761Z,66.30
2023-03-03T15:52:26.683Z,66.10
2023-03-03T15:55:12.917Z,65.70
2023-03-03T15:58:00.063Z,66.20
2023-03-03T16:01:12.914Z,67.60
2023-03-03T16:03:52.908Z,69.00
2023-03-03T16:06:49.624Z,67.40
2023-03-03T16:09:49.063Z,69.70
2023-03-03T16:12:38.082Z,67.60
2023-03-03T16:15:24.275Z,67.80
2023-03-03T16:18:18.859Z,69.60
2023-03-03T16:21:24.510Z,69.90
2023-03-03T16:24:07.430Z,69.40
2023-03-03T16:27:04.404Z,71.20
2023-03-03T16:30:11.318Z,71.20
2023-03-03T16:32:50.925Z,72.40
2023-03-03T16:35:31.884Z,72.30
2023-03-03T16:38:46.554Z,71.90
2023-03-03T16:41:23.761Z,72.80
2023-03-03T16:44:13.035Z,72.40
2023-03-03T16:46:48.668Z,74.50
2023-03-03T16:49:42.771Z,74.50
2023-03-03T16:52:17.545Z,74.70
2023-03-03T16:55:03.047Z,74.70
2023-03-03T16:57:51.400Z,75.10
2023-03-03T17:00:28.487Z,76.30
2023-03-03T17:03:18.052Z,76.70
2023-03-03T17:06:01.511Z,75.00
2023-03-03T17:08:50.510Z,76.50
2023-03-03T17:11:18.061Z,77.00
2023-03-03T17:13:49.010Z,76.50
2023-03-03T17:16:26.479Z,79.50
2023-03-03T17:19:18.365Z,77.70
2023-03-03T17:21:53.669Z,79.80
2023-03-03T17:25:05.026Z,79.50
2023-03-03T17:28:10.287Z,79.00
2023-03-03T17:31:10.011Z,78.90
2023-03-03T17:34:04.381Z,78.30
2023-03-03T17:36:40.744Z,81.00
2023-03-03T17:39:44.546Z,82.70
2023-03-03T17:42:22.397Z,81.40
2023-03-03T17:45:10.871Z,78.50
2023-03-03T17:47:57.190Z,77.90
2023-03-03T17:50:57.240Z,79.20
2023-03-03T17:53:54.198Z,79.90
2023-03-03T17:56:29.879Z,79.40
2023-03-03T17:59:18.516Z,77.90
2023-03-03T18:01:50.374Z,79.90
2023-03-03T18:04:18.968Z,79.70
2023-03-03T18:06:59.357Z,80.00
2023-03-03T18:09:39.906Z,80.70
2023-03-03T18:12:32.909Z,81.40
2023-03-03T18:15:27.419Z,80.50
2023-03-03T18:18:27.141Z,82.30
2023-03-03T18:21:24.351Z,81.00
2023-03-03T18:23:52.535Z,80.70
2023-03-03T18:26:38.496Z,81.60
2023-03-03T18:29:10.582Z,81.90
2023-03-03T18:32:03.964Z,83.30
2023-03-03T18:34:41.518Z,81.50
2023-03-03T18:37:31.363Z,80.50
2023-03-03T18:40:03.154Z,83.60
2023-03-03T18:42:44.226Z,81.00
2023-03-03T18:45:19.446Z,81.50
2023-03-03T18:48:17.979Z,81.00
2023-03-03T18:50:54.111Z,80.50
2023-03-03T18:53:28.906Z,80.40
2023-03-03T18:56:01.839Z,79.70
2023-03-03T18:58:42.856Z,80.50
2023-03-03T19:01:34.069Z,82.20
2023-03-03T19:04:21.426Z,81.10
2023-03-03T19:06:53.088Z,79.80
2023-03-03T19:10:02.293Z,80.30
2023-03-03T19:13:01.722Z,81.50
2023-03-03T19:15:30.733Z,81.40
2023-03-03T19:18:27.169Z,80.10
2023-03-03T19:21:03.331Z,82.30
2023-03-03T19:23:52.147Z,81.10
2023-03-03T19:26:29.366Z,82.00
2023-03-03T19:29:32.023Z,84.00
2023-03-03T19:32:16.350Z,82.20
2023-03-03T19:35:11.000Z,81.40
2023-03-03T19:37:55.428Z,81.60
2023-03-03T19:40:48.658Z,82.70
2023-03-03T19:43:51.621Z,85.70
2023-03-03T19:46:34.678Z,85.60
2023-03-03T19:49:30.064Z,82.70
2023-03-03T19:52:29.567Z,84.00
2023-03-03T19:55:09.901Z,84.60
2023-03-03T19:57:50.146Z,83.10
2023-03-03T20:00:38.537Z,82.00
2023-03-03T20:03:48.720Z,84.00
2023-03-03T20:06:21.254Z,83.20
2023-03-03T20:09:19.096Z,83.10
2023-03-03T20:12:08.360Z,83.00
2023-03-03T20:14:55.566Z,83.00
2023-03-03T20:17:31.546Z,83.50
2023-03-03T20:20:25.900Z,84.60
2023-03-03T20:22:58.345Z,84.70
2023-03-03T20:25:45.123Z,87.40
2023-03-03T20:28:42.212Z,85.00
2023-03-03T20:31:20.802Z,86.70
2023-03-03T20:33:58.293Z,88.00
2023-03-03T20:36:45.517Z,88.50
2023-03-03T20:39:47.260Z,89.60
2023-03-03T20:42:20.038Z,88.80
2023-03-03T20:45:18.314Z,86.30
2023-03-03T20:48:15.874Z,90.30
2023-03-03T20:51:11.667Z,87.70
2023-03-03T20:53:39.821Z,87.20
2023-03-03T20:56:23.751Z,87.80
2023-03-03T20:59:01.943Z,88.00
2023-03-03T21:01:49.322Z,88.40
2023-03-03T21:04:19.760Z,88.40
2023-03-03T21:06:49.203Z,88.20
2023-03-03T21:09:48.545Z,90.10
2023-03-03T21:12:29.542Z,88.10
2023-03-03T21:15:43.561Z,90.50
2023-03-03T21:18:26.820Z,90.00
2023-03-03T21:20:56.383Z,90.20
2023-03-03T21:23:24.879Z,88.70
2023-03-03T21:26:02.559Z,89.90
2023-03-03T21:28:33.812Z,88.20
2023-03-03T21:31:04.621Z,90.90
2023-03-03T21:33:56.082Z,88.90
2023-03-03T21:36:33.654Z,88.30
2023-03-03T21:39:19.066Z,89.80
2023-03-03T21:41:58.342Z,88.90
2023-03-03T21:44:32.717Z,88.90
2023-03-03T21:47:01.480Z,90.80
2023-03-03T21:49:29.522Z,89.50
2023-03-03T21:51:57.840Z,88.80
2023-03-03T21:54:26.131Z,89.10
2023-03-03T21:56:54.943Z,92.20
2023-03-03T21:59:22.858Z,91.00
2023-03-03T22:01:50.709Z,91.50
2023-03-03T22:04:18.418Z,92.20
2023-03-03T22:06:46.403Z,92.80
2023-03-03T22:09:15.379Z,91.70
2023-03-03T22:11:46.047Z,92.30
2023-03-03T22:14:15.097Z,93.60
2023-03-03T22:16:43.022Z,93.00
2023-03-03T22:19:10.807Z,92.90
2023-03-03T22:21:39.491Z,90.90
2023-03-03T22:24:08.216Z,90.40
2023-03-03T22:26:38.381Z,91.30
2023-03-03T22:29:06.387Z,90.60
2023-03-03T22:31:35.290Z,90.70
2023-03-03T22:34:03.390Z,91.20
2023-03-03T22:36:31.078Z,93.00
2023-03-03T22:38:58.911Z,92.80
2023-03-03T22:41:26.997Z,94.50
2023-03-03T22:43:54.708Z,93.50
2023-03-03T22:46:22.330Z,92.90
2023-03-03T22:48:50.123Z,92.80
2023-03-03T22:51:18.536Z,92.00
2023-03-03T22:53:46.552Z,92.80
2023-03-03T22:56:14.210Z,92.50
2023-03-03T22:58:41.877Z,92.90
2023-03-03T23:01:09.430Z,91.40
2023-03-03T23:03:37.383Z,91.20
2023-03-03T23:06:05.504Z,93.00
2023-03-03T23:08:33.269Z,93.60
2023-03-03T23:11:01.164Z,93.00
2023-03-03T23:13:29.078Z,91.10
2023-03-03T23:16:00.200Z,90.70
2023-03-03T23:18:28.945Z,91.50
2023-03-03T23:20:57.186Z,93.50
2023-03-03T23:23:25.023Z,92.30
2023-03-03T23:25:52.780Z,90.70
2023-03-03T23:28:20.635Z,92.20
2023-03-03T23:30:49.828Z,91.20
2023-03-03T23:33:18.577Z,91.40
2023-03-03T23:35:46.244Z,93.90
2023-03-03T23:38:17.752Z,91.50
2023-03-03T23:40:48.200Z,91.60
2023-03-03T23:43:15.886Z,91.10
2023-03-03T23:45:43.710Z,91.60
2023-03-03T23:48:11.399Z,93.80
2023-03-03T23:50:39.633Z,91.50
2023-03-03T23:53:08.054Z,91.50
2023-03-03T23:55:36.428Z,91.70
2023-03-03T23:58:04.959Z,91.00
